Time;durP1;ratioP1;P1;durP2;ratioP2;P2;SDS_P1;SDS_P2;PMS_P1;PMS_P2;Temp;Humidity;BMP_temperature;BMP_pressure;BME280_temperature;BME280_humidity;BME280_pressure;Samples;Min_cycle;Max_cycle;Signal;HPM_P1;HPM_P2
2024/01/19 00:00:49;;;;;;;4.70;3.80;;;;;;;-15.66;85.98;102401.38;6203333;23;20047;-64
2024/01/19 00:03:19;;;;;;;6.00;4.32;;;;;;;-15.57;85.85;102406.59;6189045;23;20557;-61
2024/01/19 00:05:50;;;;;;;6.13;4.80;;;;;;;-15.60;85.39;102396.22;6203594;23;20106;-64
2024/01/19 00:08:22;;;;;;;4.75;4.32;;;;;;;-15.61;85.58;102399.44;6188503;23;20024;-61
2024/01/19 00:10:52;;;;;;;5.22;4.75;;;;;;;-15.54;85.13;102402.00;6204151;23;20463;-63
2024/01/19 00:13:23;;;;;;;4.95;4.55;;;;;;;-15.48;85.25;102402.72;6188591;23;20024;-65
2024/01/19 00:15:55;;;;;;;6.15;4.90;;;;;;;-15.37;84.75;102396.47;6203168;23;20020;-62
2024/01/19 00:18:26;;;;;;;5.80;4.63;;;;;;;-15.46;84.12;102397.19;6187544;23;20035;-64
2024/01/19 00:20:56;;;;;;;8.75;4.78;;;;;;;-15.33;84.21;102398.66;6202621;23;20558;-62
2024/01/19 00:23:28;;;;;;;4.38;3.83;;;;;;;-15.23;84.35;102404.94;6187188;23;20055;-63
2024/01/19 00:25:58;;;;;;;4.90;4.40;;;;;;;-15.18;83.66;102400.50;6201811;23;20099;-65
2024/01/19 00:28:29;;;;;;;4.72;4.25;;;;;;;-15.09;83.22;102405.72;6187381;23;20020;-62
2024/01/19 00:30:59;;;;;;;5.78;4.50;;;;;;;-15.03;83.41;102397.31;6202340;23;20706;-62
2024/01/19 00:33:30;;;;;;;6.60;4.97;;;;;;;-14.92;83.06;102391.09;6187320;23;20040;-62
2024/01/19 00:36:00;;;;;;;5.13;4.20;;;;;;;-14.89;82.27;102398.06;6202407;23;20016;-63
2024/01/19 00:38:32;;;;;;;4.82;4.00;;;;;;;-14.85;82.32;102398.63;6187896;23;20369;-65
2024/01/19 00:41:03;;;;;;;5.80;4.40;;;;;;;-14.76;82.12;102393.78;6203419;23;20048;-65
2024/01/19 00:43:33;;;;;;;5.05;4.50;;;;;;;-14.65;81.17;102392.53;6188599;23;20051;-66
2024/01/19 00:46:04;;;;;;;4.45;3.90;;;;;;;-14.62;81.20;102392.91;6203515;23;20024;-65
2024/01/19 00:48:35;;;;;;;4.38;3.97;;;;;;;-14.76;80.97;102388.75;6188832;23;20438;-64
2024/01/19 00:51:06;;;;;;;4.07;3.72;;;;;;;-14.80;80.72;102390.03;6203353;23;20024;-63
2024/01/19 00:53:38;;;;;;;4.82;4.30;;;;;;;-14.88;80.87;102378.16;6188139;23;20028;-61
2024/01/19 00:56:09;;;;;;;6.35;4.47;;;;;;;-15.43;80.60;102272.22;6203864;23;20028;-63
2024/01/19 00:58:40;;;;;;;5.53;4.25;;;;;;;-14.81;79.90;102397.34;6187541;23;20540;-61
2024/01/19 01:01:10;;;;;;;6.47;4.55;;;;;;;-14.76;80.13;102392.91;6198042;23;20118;-60
2024/01/19 01:03:41;;;;;;;4.65;4.25;;;;;;;-14.75;79.93;102389.66;6202713;23;20028;-61
2024/01/19 01:06:11;;;;;;;5.55;4.35;;;;;;;-14.83;79.42;102397.16;6191842;23;20389;-61
2024/01/19 01:08:44;;;;;;;4.93;4.18;;;;;;;-14.80;80.17;102392.53;6203212;23;20031;-63
2024/01/19 01:11:14;;;;;;;4.38;3.95;;;;;;;-14.67;79.73;102388.97;6188593;23;20024;-63
2024/01/19 01:13:44;;;;;;;6.43;4.40;;;;;;;-14.67;79.60;102387.34;6202917;23;20016;-62
2024/01/19 01:16:15;;;;;;;3.95;3.63;;;;;;;-14.57;79.50;102381.78;6187836;23;20020;-63
2024/01/19 01:18:45;;;;;;;13.75;6.70;;;;;;;-14.54;79.27;102382.16;6203033;23;20098;-62
2024/01/19 01:21:16;;;;;;;5.55;4.00;;;;;;;-14.34;79.76;102377.81;6187489;23;20024;-63
2024/01/19 01:23:48;;;;;;;7.07;4.38;;;;;;;-14.35;78.64;102378.53;6202569;23;20024;-62
2024/01/19 01:26:18;;;;;;;4.68;4.25;;;;;;;-14.28;78.52;102381.75;6187667;23;20043;-63
2024/01/19 01:28:49;;;;;;;5.32;4.68;;;;;;;-14.26;78.35;102372.78;6203110;23;20090;-61
2024/01/19 01:31:19;;;;;;;8.68;5.18;;;;;;;-14.16;78.49;102368.97;6185674;23;20123;-65
2024/01/19 01:33:49;;;;;;;3.92;3.55;;;;;;;-14.11;77.58;102367.00;6202201;23;20107;-64
2024/01/19 01:36:20;;;;;;;5.38;4.32;;;;;;;-13.94;78.13;102367.31;6186883;23;20066;-66
2024/01/19 01:38:52;;;;;;;10.85;5.20;;;;;;;-13.79;77.41;102359.75;6202332;23;20125;-61
2024/01/19 01:41:23;;;;;;;6.10;4.85;;;;;;;-13.74;76.85;102359.56;6187024;23;20032;-63
2024/01/19 01:43:53;;;;;;;7.57;4.93;;;;;;;-13.84;76.26;102358.34;6203128;23;20561;-65
2024/01/19 01:46:23;;;;;;;5.72;4.45;;;;;;;-13.84;76.41;102358.34;6187887;23;20031;-60
2024/01/19 01:48:54;;;;;;;6.80;4.25;;;;;;;-13.84;76.11;102365.88;6202302;23;20456;-62
2024/01/19 01:51:25;;;;;;;3.85;3.45;;;;;;;-13.87;76.14;102358.00;6187719;23;20024;-61
2024/01/19 01:53:57;;;;;;;5.85;3.83;;;;;;;-13.89;75.98;102364.47;6202373;23;20028;-62
2024/01/19 01:56:29;;;;;;;4.63;4.15;;;;;;;-13.92;76.38;102360.88;6186990;23;20032;-65
2024/01/19 01:58:59;;;;;;;6.93;4.47;;;;;;;-13.89;76.48;102355.31;6202796;23;20110;-61
2024/01/19 02:01:30;;;;;;;4.60;3.70;;;;;;;-13.89;76.29;102351.91;6187076;23;20031;-64
2024/01/19 02:04:02;;;;;;;5.50;4.50;;;;;;;-14.63;76.45;102230.47;6202575;23;20024;-64
2024/01/19 02:06:32;;;;;;;6.63;3.70;;;;;;;-13.98;76.53;102345.06;6188123;23;20024;-63
2024/01/19 02:09:05;;;;;;;5.00;4.05;;;;;;;-13.83;76.58;102345.03;6202408;23;20027;-65
2024/01/19 02:11:36;;;;;;;7.45;4.07;;;;;;;-13.94;76.71;102314.56;6186466;23;20024;-60
2024/01/19 02:14:09;;;;;;;5.25;3.83;;;;;;;-13.72;76.31;102344.66;6203387;23;20099;-62
2024/01/19 02:16:40;;;;;;;5.43;3.85;;;;;;;-13.61;76.10;102335.81;6186983;23;20035;-63
2024/01/19 02:19:10;;;;;;;3.88;3.58;;;;;;;-13.64;75.85;102338.88;6202699;23;20115;-63
2024/01/19 02:21:41;;;;;;;3.88;3.58;;;;;;;-13.55;75.86;102339.91;6187003;23;20095;-65
2024/01/19 02:24:15;;;;;;;3.40;3.10;;;;;;;-13.52;75.66;102337.75;6193604;23;20378;-63
2024/01/19 02:26:46;;;;;;;6.65;3.90;;;;;;;-14.02;75.71;102232.41;6201834;23;20111;-64
2024/01/19 02:29:16;;;;;;;4.57;3.88;;;;;;;-13.51;75.16;102339.53;6188280;23;20024;-64
2024/01/19 02:31:47;;;;;;;4.05;3.50;;;;;;;-13.58;75.52;102329.50;6201811;23;20024;-63
2024/01/19 02:34:17;;;;;;;4.15;3.58;;;;;;;-13.59;75.44;102326.81;6187490;23;20534;-64
2024/01/19 02:36:48;;;;;;;7.47;3.90;;;;;;;-13.57;76.01;102326.28;6203342;23;20457;-64
2024/01/19 02:39:20;;;;;;;5.85;4.55;;;;;;;-13.67;76.12;102317.53;6189738;23;20048;-64
2024/01/19 02:41:50;;;;;;;6.20;4.18;;;;;;;-13.52;76.40;102316.75;6204368;23;20089;-66
2024/01/19 02:44:21;;;;;;;6.38;4.95;;;;;;;-13.50;75.88;102311.16;6189530;23;20020;-63
2024/01/19 02:46:51;;;;;;;5.43;3.92;;;;;;;-13.44;76.05;102312.56;6204663;23;20340;-65
2024/01/19 02:49:21;;;;;;;7.43;4.50;;;;;;;-13.36;75.72;102306.75;6189784;23;20032;-61
2024/01/19 02:51:52;;;;;;;4.97;4.20;;;;;;;-13.39;75.62;102311.47;6204287;23;20099;-65
2024/01/19 02:54:24;;;;;;;5.70;4.13;;;;;;;-13.35;75.55;102313.56;6189417;23;20445;-64
2024/01/19 02:56:54;;;;;;;4.95;3.90;;;;;;;-13.47;75.73;102303.94;6204356;23;20027;-66
2024/01/19 02:59:25;;;;;;;9.38;4.40;;;;;;;-13.47;75.89;102308.97;6189102;23;20142;-66
2024/01/19 03:01:55;;;;;;;5.28;4.28;;;;;;;-13.39;76.13;102301.41;6204481;23;20027;-65
2024/01/19 03:04:25;;;;;;;5.28;3.67;;;;;;;-13.42;75.12;102301.94;6189259;23;20035;-64
2024/01/19 03:06:57;;;;;;;4.22;3.83;;;;;;;-13.42;75.07;102301.06;6203586;23;20787;-65
2024/01/19 03:09:29;;;;;;;8.30;4.00;;;;;;;-13.30;75.40;102302.44;6189071;23;20119;-63
2024/01/19 03:11:59;;;;;;;5.38;4.13;;;;;;;-13.24;74.84;102300.53;6202714;23;20023;-62
2024/01/19 03:14:30;;;;;;;4.95;4.10;;;;;;;-13.21;74.88;102288.31;6189132;23;20392;-62
2024/01/19 03:17:00;;;;;;;5.15;3.80;;;;;;;-13.18;74.56;102288.63;6204884;23;20409;-65
2024/01/19 03:19:31;;;;;;;4.85;4.05;;;;;;;-13.15;74.80;102283.97;6189411;23;20025;-62
2024/01/19 03:22:02;;;;;;;5.25;4.00;;;;;;;-13.16;74.46;102292.22;6204383;23;20038;-63
2024/01/19 03:24:34;;;;;;;5.88;4.10;;;;;;;-13.23;74.48;102284.72;6189735;23;20032;-61
2024/01/19 03:27:05;;;;;;;7.80;3.55;;;;;;;-13.24;74.59;102277.91;6204063;23;20022;-65
2024/01/19 03:29:35;;;;;;;8.23;4.72;;;;;;;-13.21;74.74;102297.47;6188861;23;20024;-61
2024/01/19 03:32:06;;;;;;;9.77;4.72;;;;;;;-13.28;74.62;102285.88;6203984;23;20020;-59
2024/01/19 03:34:36;;;;;;;4.68;4.13;;;;;;;-13.27;74.49;102290.19;6189021;23;20078;-59
2024/01/19 03:37:07;;;;;;;7.40;5.00;;;;;;;-13.26;74.24;102284.38;6203926;23;20020;-62
2024/01/19 03:39:39;;;;;;;6.35;4.05;;;;;;;-13.21;74.24;102282.38;6188528;23;20016;-64
2024/01/19 03:42:09;;;;;;;4.00;3.63;;;;;;;-13.24;73.84;102280.44;6203515;23;20563;-66
2024/01/19 03:44:42;;;;;;;6.03;4.00;;;;;;;-13.41;73.85;102250.03;6188070;23;20031;-61
2024/01/19 03:47:13;;;;;;;6.53;4.30;;;;;;;-13.26;73.70;102274.31;6189267;23;20027;-64
2024/01/19 03:49:43;;;;;;;6.63;4.50;;;;;;;-13.32;73.99;102273.69;6204114;23;20111;-61
2024/01/19 03:52:16;;;;;;;4.80;3.95;;;;;;;-13.36;73.69;102272.44;6188999;23;20046;-64
2024/01/19 03:54:48;;;;;;;4.40;3.72;;;;;;;-13.39;73.84;102281.28;6203929;23;20387;-65
2024/01/19 03:57:18;;;;;;;6.05;4.30;;;;;;;-13.54;73.94;102286.38;6188875;23;20020;-62
2024/01/19 03:59:48;;;;;;;6.07;4.35;;;;;;;-13.60;74.33;102275.66;6203529;23;20108;-61
2024/01/19 04:02:19;;;;;;;5.53;3.78;;;;;;;-13.49;74.66;102271.81;6188093;23;20024;-64
2024/01/19 04:04:49;;;;;;;5.72;4.18;;;;;;;-13.50;74.49;102270.94;6203952;23;20047;-63
2024/01/19 04:07:20;;;;;;;5.10;3.60;;;;;;;-13.53;74.67;102272.19;6188536;23;20630;-62
2024/01/19 04:09:52;;;;;;;5.28;3.92;;;;;;;-13.54;74.69;102270.41;6203199;23;20380;-64
2024/01/19 04:12:22;;;;;;;7.22;4.57;;;;;;;-13.50;74.86;102263.38;6188838;23;20111;-67
2024/01/19 04:14:53;;;;;;;5.97;4.18;;;;;;;-13.44;74.78;102264.78;6203567;23;20056;-62
2024/01/19 04:17:23;;;;;;;7.57;4.00;;;;;;;-13.47;74.59;102268.75;6188223;23;20024;-62
2024/01/19 04:19:54;;;;;;;5.53;4.40;;;;;;;-13.43;74.58;102269.06;6203951;23;20368;-65
2024/01/19 04:22:25;;;;;;;5.60;4.50;;;;;;;-13.34;75.09;102275.13;6188761;23;20028;-61
2024/01/19 04:24:57;;;;;;;5.50;4.35;;;;;;;-13.31;74.47;102270.44;6203380;23;20035;-63
2024/01/19 04:27:27;;;;;;;8.43;4.82;;;;;;;-13.42;74.62;102269.25;6188515;23;20024;-62
2024/01/19 04:29:58;;;;;;;6.15;4.43;;;;;;;-13.50;75.11;102273.44;6199952;23;20026;-62
2024/01/19 04:32:29;;;;;;;6.50;4.57;;;;;;;-13.47;75.18;102268.75;6187864;23;20035;-62
2024/01/19 04:34:59;;;;;;;7.22;3.80;;;;;;;-13.35;75.11;102269.22;6204101;23;20538;-63
2024/01/19 04:37:30;;;;;;;4.65;4.00;;;;;;;-13.40;75.45;102265.31;6187715;23;20203;-63
2024/01/19 04:40:02;;;;;;;5.47;4.20;;;;;;;-13.34;75.48;102270.09;6203480;23;20027;-63
2024/01/19 04:42:32;;;;;;;5.57;4.35;;;;;;;-13.35;74.94;102274.25;6188489;23;20058;-63
2024/01/19 04:45:03;;;;;;;4.47;3.70;;;;;;;-13.35;74.94;102268.31;6203333;23;20024;-61
2024/01/19 04:47:33;;;;;;;8.32;4.32;;;;;;;-13.43;74.99;102276.63;6188850;23;20719;-63
2024/01/19 04:50:04;;;;;;;4.88;3.63;;;;;;;-13.47;74.73;102278.81;6204058;23;20515;-59
2024/01/19 04:52:34;;;;;;;4.30;3.70;;;;;;;-13.53;74.74;102277.22;6188235;23;20058;-60
2024/01/19 04:55:07;;;;;;;4.88;3.35;;;;;;;-13.51;74.92;102271.63;6203979;23;20211;-61
2024/01/19 04:57:37;;;;;;;9.88;4.55;;;;;;;-13.47;75.59;102273.78;6187572;23;20028;-60
2024/01/19 05:00:09;;;;;;;5.15;3.88;;;;;;;-13.59;75.12;102262.34;6202324;23;20016;-63
2024/01/19 05:02:39;;;;;;;5.25;3.95;;;;;;;-13.54;74.81;102273.81;6187397;23;20070;-61
2024/01/19 05:05:10;;;;;;;9.07;4.00;;;;;;;-13.61;75.07;102273.84;6203606;23;20024;-63
2024/01/19 05:07:41;;;;;;;4.68;3.75;;;;;;;-13.58;75.26;102269.16;6187261;23;20044;-63
2024/01/19 05:10:13;;;;;;;5.28;4.15;;;;;;;-13.54;75.68;102271.28;6196065;23;20051;-61
2024/01/19 05:12:43;;;;;;;5.32;4.82;;;;;;;-13.86;75.32;102229.09;6202856;23;20547;-63
2024/01/19 05:15:14;;;;;;;3.95;3.55;;;;;;;-13.61;75.37;102283.00;6187868;23;20089;-63
2024/01/19 05:17:44;;;;;;;3.55;3.25;;;;;;;-13.61;75.60;102283.91;6202845;23;20016;-63
2024/01/19 05:20:15;;;;;;;4.47;3.97;;;;;;;-13.64;75.33;102282.69;6188306;23;20024;-61
2024/01/19 05:22:45;;;;;;;4.22;3.83;;;;;;;-13.62;75.61;102279.63;6203176;23;20085;-63
2024/01/19 05:25:18;;;;;;;5.55;4.28;;;;;;;-13.61;75.54;102283.91;6183739;23;20115;-61
2024/01/19 05:27:50;;;;;;;4.80;3.85;;;;;;;-13.91;75.21;102231.97;6199154;23;20099;-63
2024/01/19 05:30:21;;;;;;;5.30;3.90;;;;;;;-13.77;75.87;102281.28;6187456;23;20118;-63
2024/01/19 05:32:53;;;;;;;4.47;3.83;;;;;;;-13.84;76.31;102282.94;6203737;23;20107;-58
2024/01/19 05:35:24;;;;;;;4.07;3.58;;;;;;;-13.88;76.41;102290.84;6190250;23;20139;-61
2024/01/19 05:37:54;;;;;;;4.70;3.85;;;;;;;-13.94;76.05;102286.94;6205936;23;20103;-60
2024/01/19 05:40:26;;;;;;;4.50;3.85;;;;;;;-13.94;76.36;102291.94;6190239;23;20093;-62
2024/01/19 05:42:57;;;;;;;4.65;4.07;;;;;;;-13.98;76.32;102284.78;6204898;23;20095;-62
2024/01/19 05:45:27;;;;;;;4.15;3.75;;;;;;;-14.01;76.64;102291.97;6190314;23;20035;-60
2024/01/19 05:47:58;;;;;;;5.70;4.28;;;;;;;-14.05;76.29;102287.34;6204974;23;20058;-61
2024/01/19 05:50:28;;;;;;;6.95;3.45;;;;;;;-14.14;76.56;102286.28;6187766;23;20793;-60
2024/01/19 05:52:59;;;;;;;4.57;4.07;;;;;;;-14.19;76.52;102288.25;6201633;23;20098;-61
2024/01/19 05:55:55;;;;;;;11.98;4.10;;;;;;;-14.22;76.56;102302.09;6187853;23;20044;-62
2024/01/19 05:58:32;;;;;;;5.47;4.00;;;;;;;-14.21;76.73;102298.84;6186799;23;20027;-59
2024/01/19 06:01:05;;;;;;;8.10;4.30;;;;;;;-14.26;76.61;102304.97;6203087;23;20024;-64
2024/01/19 06:03:35;;;;;;;5.63;4.25;;;;;;;-14.35;76.94;102309.81;6188128;23;20059;-64
2024/01/19 06:06:42;;;;;;;6.35;4.43;;;;;;;-14.34;76.80;102307.50;6202761;23;20449;-62
2024/01/19 06:09:13;;;;;;;3.90;3.60;;;;;;;-14.41;77.19;102315.03;6184547;23;20028;-63
2024/01/19 06:11:58;;;;;;;4.97;3.92;;;;;;;-14.50;76.94;102308.97;6203767;23;20448;-61
2024/01/19 06:14:28;;;;;;;5.47;4.18;;;;;;;-14.61;77.51;102315.25;6189072;23;20047;-63
2024/01/19 06:16:59;;;;;;;4.10;3.67;;;;;;;-14.65;77.43;102313.13;6204695;23;20030;-63
2024/01/19 06:19:29;;;;;;;6.20;4.15;;;;;;;-14.71;77.49;102309.00;6188863;23;20379;-63
2024/01/19 06:22:00;;;;;;;4.45;4.03;;;;;;;-14.78;77.42;102314.91;6204063;23;20709;-63
2024/01/19 06:24:38;;;;;;;5.45;4.57;;;;;;;-14.84;77.44;102310.09;6189400;23;21316;-63
2024/01/19 06:27:10;;;;;;;5.03;4.03;;;;;;;-14.84;77.78;102315.09;6184052;23;20023;-65
2024/01/19 06:29:41;;;;;;;5.40;4.05;;;;;;;-14.93;77.69;102314.00;6188277;23;20090;-64
2024/01/19 06:32:23;;;;;;;6.70;4.25;;;;;;;-14.83;78.03;102311.84;6196202;23;20052;-65
2024/01/19 06:34:54;;;;;;;5.28;4.05;;;;;;;-14.81;77.53;102320.47;6204231;23;20020;-64
2024/01/19 06:37:24;;;;;;;6.00;4.03;;;;;;;-14.88;77.47;102322.97;6188937;22;20027;-62
2024/01/19 06:39:56;;;;;;;4.35;3.65;;;;;;;-15.00;77.49;102327.47;6204505;23;20024;-64
2024/01/19 06:42:29;;;;;;;4.30;3.90;;;;;;;-15.07;77.53;102329.06;6188357;23;20067;-66
2024/01/19 06:44:59;;;;;;;7.43;4.35;;;;;;;-15.27;77.41;102334.22;6203863;23;20439;-63
2024/01/19 06:47:31;;;;;;;5.53;3.90;;;;;;;-15.39;77.49;102328.63;6188592;23;20024;-64
2024/01/19 06:50:02;;;;;;;5.25;3.85;;;;;;;-15.54;77.79;102336.84;6204750;23;20020;-66
2024/01/19 06:52:32;;;;;;;10.25;4.20;;;;;;;-15.60;78.27;102331.06;6189665;23;20099;-65
2024/01/19 06:55:03;;;;;;;5.53;3.92;;;;;;;-15.73;78.36;102326.22;6204406;23;20074;-62
2024/01/19 06:57:35;;;;;;;6.38;4.13;;;;;;;-15.77;78.52;102342.50;6188277;23;20449;-65
2024/01/19 07:00:06;;;;;;;7.05;4.30;;;;;;;-15.90;78.56;102346.72;6204261;23;20495;-66
2024/01/19 07:02:37;;;;;;;4.57;4.10;;;;;;;-16.08;78.61;102343.75;6188069;23;20044;-61
2024/01/19 07:05:08;;;;;;;6.80;4.55;;;;;;;-16.20;78.81;102347.25;6204351;23;20038;-61
2024/01/19 07:07:39;;;;;;;5.93;4.13;;;;;;;-16.32;79.28;102355.78;6188622;23;20695;-67
2024/01/19 07:10:10;;;;;;;4.45;3.83;;;;;;;-16.44;79.66;102361.78;6203700;23;20051;-66
2024/01/19 07:12:42;;;;;;;6.15;4.10;;;;;;;-16.49;80.28;102365.31;6187890;23;20701;-64
2024/01/19 07:15:12;;;;;;;4.95;4.43;;;;;;;-16.57;80.67;102361.84;6188221;23;20093;-63
2024/01/19 07:17:43;;;;;;;5.65;4.65;;;;;;;-16.68;81.06;102365.50;6203454;23;20015;-66
2024/01/19 07:20:13;;;;;;;4.40;3.95;;;;;;;-16.79;81.92;102365.81;6188612;23;20020;-63
2024/01/19 07:22:44;;;;;;;4.60;4.20;;;;;;;-16.82;82.46;102372.91;6203522;23;20031;-66
2024/01/19 07:25:14;;;;;;;6.85;4.90;;;;;;;-16.85;82.81;102387.53;6188837;23;20081;-66
2024/01/19 07:27:46;;;;;;;4.97;4.25;;;;;;;-16.94;82.75;102387.28;6203407;23;20031;-62
2024/01/19 07:30:17;;;;;;;5.60;5.05;;;;;;;-16.98;83.52;102386.00;6188313;23;20047;-63
2024/01/19 07:32:47;;;;;;;10.77;5.40;;;;;;;-17.44;83.72;102325.19;6202717;23;20028;-66
2024/01/19 07:35:33;;;;;;;10.82;7.65;;;;;;;-17.22;83.64;102385.38;6188925;23;20094;-63
2024/01/19 07:38:04;;;;;;;20.50;8.82;;;;;;;-17.31;84.29;102392.59;6204157;23;20318;-64
2024/01/19 07:40:35;;;;;;;13.07;6.10;;;;;;;-17.47;84.06;102393.81;6188710;23;20028;-62
2024/01/19 07:43:07;;;;;;;8.35;6.35;;;;;;;-17.64;83.89;102399.19;6203705;23;20048;-66
2024/01/19 07:45:37;;;;;;;9.38;5.95;;;;;;;-17.81;84.03;102393.63;6187705;23;20016;-59
2024/01/19 07:48:08;;;;;;;10.02;6.47;;;;;;;-17.85;83.80;102398.19;6203851;23;20114;-64
2024/01/19 07:50:38;;;;;;;13.55;8.05;;;;;;;-17.97;84.08;102399.09;6187611;23;20024;-62
2024/01/19 07:53:09;;;;;;;20.13;11.70;;;;;;;-18.08;83.83;102407.69;6203689;23;20035;-66
2024/01/19 07:55:39;;;;;;;10.88;7.55;;;;;;;-18.10;83.77;102409.06;6187842;23;20024;-64
2024/01/19 07:58:11;;;;;;;20.27;11.68;;;;;;;-18.11;83.73;102412.28;6203001;23;20024;-63
2024/01/19 08:00:42;;;;;;;17.83;10.88;;;;;;;-18.18;83.61;102423.75;6187258;23;20618;-66
2024/01/19 08:03:12;;;;;;;15.63;8.25;;;;;;;-18.27;83.53;102419.38;6188026;23;20141;-65
2024/01/19 08:05:43;;;;;;;16.95;8.02;;;;;;;-18.37;83.02;102431.28;6203495;23;20052;-62
2024/01/19 08:08:13;;;;;;;15.43;8.75;;;;;;;-18.40;83.06;102435.88;6189149;23;20055;-66
2024/01/19 08:10:44;;;;;;;22.88;11.90;;;;;;;-18.44;83.12;102441.19;6203510;23;20047;-63
2024/01/19 08:13:16;;;;;;;15.05;8.85;;;;;;;-18.47;82.92;102438.25;6188273;23;20681;-67
2024/01/19 08:15:46;;;;;;;9.88;6.85;;;;;;;-18.46;83.17;102440.06;6203025;23;20372;-65
2024/01/19 08:18:17;;;;;;;9.95;7.00;;;;;;;-18.44;83.31;102438.69;6188482;23;20047;-63
2024/01/19 08:20:48;;;;;;;7.70;6.05;;;;;;;-18.56;82.91;102437.06;6203332;23;20028;-64
2024/01/19 08:23:18;;;;;;;13.80;5.78;;;;;;;-18.63;82.36;102449.41;6187572;23;20035;-66
2024/01/19 08:25:49;;;;;;;5.43;4.72;;;;;;;-18.77;82.15;102455.94;6203750;23;20016;-66
2024/01/19 08:28:21;;;;;;;9.07;6.00;;;;;;;-19.01;81.73;102453.56;6187004;23;20123;-66
2024/01/19 08:30:51;;;;;;;14.07;6.32;;;;;;;-19.50;80.36;102423.56;6202681;23;20024;-60
2024/01/19 08:33:22;;;;;;;17.48;7.15;;;;;;;-19.65;79.77;102450.63;6188001;23;20032;-68
2024/01/19 08:35:52;;;;;;;6.00;5.20;;;;;;;-19.81;79.22;102461.72;6202817;23;20024;-61
2024/01/19 08:38:23;;;;;;;4.15;3.90;;;;;;;-20.10;78.19;102467.59;6187877;23;20020;-62
2024/01/19 08:40:53;;;;;;;6.07;5.10;;;;;;;-20.30;78.29;102464.81;6203528;23;20326;-64
2024/01/19 08:43:26;;;;;;;6.75;5.72;;;;;;;-20.41;78.36;102459.91;6187747;23;20340;-67
2024/01/19 08:45:56;;;;;;;6.28;5.22;;;;;;;-20.66;78.24;102446.56;6203020;23;20020;-66
2024/01/19 08:48:27;;;;;;;11.38;6.72;;;;;;;-20.63;78.80;102469.38;6188071;23;20085;-63
2024/01/19 08:50:58;;;;;;;9.07;6.68;;;;;;;-20.60;79.11;102472.28;6202847;23;20024;-64
2024/01/19 08:53:28;;;;;;;6.13;5.55;;;;;;;-20.67;79.44;102469.59;6188029;23;20093;-64
2024/01/19 08:55:59;;;;;;;5.53;5.13;;;;;;;-20.67;79.91;102472.09;6203152;23;20016;-67
2024/01/19 08:58:31;;;;;;;5.82;5.30;;;;;;;-20.54;80.59;102468.16;6187783;23;20097;-62
2024/01/19 09:01:03;;;;;;;6.07;5.47;;;;;;;-20.51;80.66;102468.59;6202937;23;20671;-66
2024/01/19 09:03:34;;;;;;;11.10;6.53;;;;;;;-20.49;80.60;102462.25;6187835;23;20028;-66
2024/01/19 09:06:04;;;;;;;7.55;6.40;;;;;;;-20.50;80.46;102475.34;6202907;23;20314;-63
2024/01/19 09:08:35;;;;;;;7.35;5.45;;;;;;;-20.66;80.09;102473.91;6186745;23;20523;-64
2024/01/19 09:11:06;;;;;;;5.00;4.68;;;;;;;-20.70;80.24;102464.22;6203886;23;20020;-67
2024/01/19 09:13:38;;;;;;;7.03;5.72;;;;;;;-20.81;79.89;102466.75;6188080;23;20024;-66
2024/01/19 09:16:09;;;;;;;6.38;5.75;;;;;;;-21.02;79.52;102463.00;6202960;23;20054;-62
2024/01/19 09:18:40;;;;;;;7.00;5.85;;;;;;;-21.21;79.65;102447.06;6187817;23;20094;-67
2024/01/19 09:21:18;;;;;;;6.82;5.80;;;;;;;-21.10;79.97;102480.88;6199075;23;20042;-63
2024/01/19 09:23:48;;;;;;;6.90;5.78;;;;;;;-21.07;80.41;102473.88;6202513;23;20039;-68
2024/01/19 09:26:20;;;;;;;5.72;5.30;;;;;;;-21.11;80.83;102456.75;6187456;23;20062;-62
2024/01/19 09:28:52;;;;;;;5.50;5.00;;;;;;;-21.00;80.87;102476.56;6202464;23;20211;-66
2024/01/19 09:31:22;;;;;;;8.23;6.00;;;;;;;-21.13;80.32;102473.00;6186780;23;20070;-68
2024/01/19 09:33:53;;;;;;;6.18;5.35;;;;;;;-21.27;79.75;102452.72;6201443;23;20081;-67
2024/01/19 09:36:23;;;;;;;7.50;6.30;;;;;;;-21.33;79.70;102478.47;6187436;23;20321;-65
2024/01/19 09:38:54;;;;;;;5.05;4.72;;;;;;;-21.37;79.65;102476.22;6202847;23;20488;-68
2024/01/19 09:41:33;;;;;;;5.95;5.45;;;;;;;-21.46;79.99;102474.94;6187852;23;20469;-65
2024/01/19 09:44:09;;;;;;;5.38;5.07;;;;;;;-21.39;80.65;102475.13;6203704;23;20024;-63
2024/01/19 09:47:05;;;;;;;6.07;5.68;;;;;;;-21.25;81.49;102476.22;6188263;22;20042;-65
2024/01/19 09:50:04;;;;;;;5.70;5.30;;;;;;;-21.02;82.38;102467.97;6188905;23;20051;-67
2024/01/19 09:52:50;;;;;;;7.70;7.10;;;;;;;-20.86;82.46;102470.16;6189370;23;20055;-63
2024/01/19 09:55:22;;;;;;;9.30;6.50;;;;;;;-20.80;81.91;102468.56;6189813;23;20506;-64
2024/01/19 09:57:52;;;;;;;6.45;5.80;;;;;;;-20.81;81.46;102467.66;6204573;23;20077;-66
2024/01/19 10:00:24;;;;;;;4.97;4.68;;;;;;;-20.92;80.56;102461.16;6189549;23;20129;-66
2024/01/19 10:02:55;;;;;;;6.00;5.50;;;;;;;-21.09;79.49;102475.22;6204314;23;20020;-65
2024/01/19 10:05:31;;;;;;;7.28;5.18;;;;;;;-21.13;79.72;102473.00;6189652;23;20488;-65
2024/01/19 10:08:02;;;;;;;11.68;6.78;;;;;;;-21.11;79.47;102466.69;6205315;23;20063;-67
2024/01/19 10:10:32;;;;;;;50.35;20.70;;;;;;;-21.27;78.84;102472.59;6189118;23;20643;-63
2024/01/19 10:13:03;;;;;;;10.40;7.60;;;;;;;-21.38;78.63;102469.47;6203753;23;20020;-66
2024/01/19 10:15:35;;;;;;;12.63;7.45;;;;;;;-21.44;78.69;102468.59;6189117;23;20082;-65
2024/01/19 10:18:05;;;;;;;9.48;6.40;;;;;;;-21.47;78.54;102468.16;6204429;23;20055;-64
2024/01/19 10:20:38;;;;;;;5.90;5.45;;;;;;;-21.51;78.45;102475.88;6188307;23;20340;-66
2024/01/19 10:23:21;;;;;;;7.32;6.40;;;;;;;-21.78;78.27;102458.75;6204699;23;20102;-67
2024/01/19 10:25:52;;;;;;;5.90;5.50;;;;;;;-22.11;78.43;102394.31;6204885;23;20024;-65
2024/01/19 10:28:34;;;;;;;7.18;6.47;;;;;;;-21.77;78.03;102465.50;6189557;23;20024;-65
2024/01/19 10:31:22;;;;;;;30.10;11.27;;;;;;;-21.64;78.19;102477.22;6204767;23;20024;-67
2024/01/19 10:33:55;;;;;;;8.57;7.35;;;;;;;-21.82;77.79;102483.78;6203597;23;20024;-66
2024/01/19 10:36:26;;;;;;;21.55;12.40;;;;;;;-21.91;77.81;102494.88;6189112;23;20097;-66
2024/01/19 10:39:17;;;;;;;18.52;10.88;;;;;;;-22.11;78.26;102469.63;6204315;23;21008;-65
2024/01/19 10:41:48;;;;;;;6.43;5.95;;;;;;;-22.04;78.04;102496.19;6189771;23;20016;-67
2024/01/19 10:44:20;;;;;;;5.50;5.15;;;;;;;-22.15;78.07;102488.78;6189256;23;20050;-66
2024/01/19 10:46:53;;;;;;;11.27;7.95;;;;;;;-22.12;78.45;102491.69;6204442;23;20019;-65
2024/01/19 10:49:23;;;;;;;12.25;9.82;;;;;;;-22.06;78.92;102492.59;6189686;23;20024;-63
2024/01/19 10:51:56;;;;;;;7.07;6.50;;;;;;;-21.95;79.19;102502.53;6204137;23;20016;-67
2024/01/19 10:54:27;;;;;;;5.63;5.22;;;;;;;-21.82;79.54;102501.16;6189089;23;20110;-67
2024/01/19 10:57:04;;;;;;;9.93;6.35;;;;;;;-21.78;79.12;102508.38;6203370;23;20597;-63
2024/01/19 10:59:35;;;;;;;5.82;5.32;;;;;;;-21.71;79.24;102516.69;6188912;23;20349;-69
2024/01/19 11:02:08;;;;;;;8.60;5.75;;;;;;;-21.67;79.22;102516.47;6204597;23;20795;-65
2024/01/19 11:04:39;;;;;;;5.63;5.22;;;;;;;-21.71;79.05;102505.22;6188946;23;20600;-65
2024/01/19 11:07:10;;;;;;;6.65;5.95;;;;;;;-21.75;79.02;102504.53;6203952;23;20020;-65
2024/01/19 11:09:41;;;;;;;9.50;8.52;;;;;;;-22.11;78.87;102461.25;6188558;23;20471;-66
2024/01/19 11:12:17;;;;;;;8.80;8.00;;;;;;;-21.69;79.36;102512.88;6189149;23;20503;-67
2024/01/19 11:14:48;;;;;;;7.55;6.57;;;;;;;-21.99;79.46;102458.09;6204028;23;20028;-65
2024/01/19 11:17:21;;;;;;;6.72;6.13;;;;;;;-21.61;79.94;102512.41;6188877;23;20028;-64
2024/01/19 11:19:51;;;;;;;6.70;6.20;;;;;;;-21.61;79.92;102512.41;6204545;23;20043;-65
2024/01/19 11:22:22;;;;;;;7.32;6.63;;;;;;;-21.65;79.92;102505.22;6188892;23;20047;-68
2024/01/19 11:25:00;;;;;;;6.13;5.72;;;;;;;-21.58;79.96;102512.88;6204097;23;20020;-63
2024/01/19 11:27:38;;;;;;;5.65;5.20;;;;;;;-22.37;80.04;102354.28;6188806;23;20047;-67
2024/01/19 11:30:21;;;;;;;7.07;5.57;;;;;;;-21.39;80.15;102512.38;6204003;23;20048;-62
2024/01/19 11:32:53;;;;;;;5.65;5.25;;;;;;;-21.30;80.21;102511.88;6203467;23;20063;-68
2024/01/19 11:35:41;;;;;;;6.05;5.57;;;;;;;-21.30;79.82;102511.88;6188828;23;20060;-64
2024/01/19 11:38:45;;;;;;;6.03;5.63;;;;;;;-21.24;79.80;102502.81;6191160;23;20062;-65